BOE29 KBOI-KBFI
Flight info
| Callsign | BOE29 |
|---|---|
| Flight time | 1h 2m |
| Altitude | 38000 |
| Route | OLAAH PREIS OKINY PDT CHINS5 |
| Aircraft | B789/H-SDE1E2E3FGHIJ2J3J4J5M1RWXY/LB1D1 |
Departure
| Time | 2026-04-27 01:04 |
|---|---|
| Airport | Boise Air Terminal/Gowen Field (KBOI) |
Arrival
| Time | 2026-04-27 02:06 |
|---|---|
| Airport | King County International Airport - Boeing Field (KBFI) |
| Time | Latitude | Longitude | Altitude | Speed | Heading |
|---|---|---|---|---|---|
| 2026-04-27 00:44 | 43.56416 | -116.23146 | 2856 ft | 0 kts | 26° |
| 2026-04-27 00:58 | 43.56416 | -116.23145 | 2856 ft | 0 kts | 25° |
| 2026-04-27 01:00 | 43.56426 | -116.23139 | 2854 ft | 7 kts | 25° |
| 2026-04-27 01:00 | 43.56452 | -116.23051 | 2856 ft | 15 kts | 104° |
| 2026-04-27 01:00 | 43.56395 | -116.22864 | 2857 ft | 27 kts | 115° |
| 2026-04-27 01:01 | 43.56295 | -116.22575 | 2862 ft | 40 kts | 116° |
| 2026-04-27 01:01 | 43.56178 | -116.22227 | 2856 ft | 40 kts | 116° |
| 2026-04-27 01:01 | 43.56064 | -116.21897 | 2861 ft | 36 kts | 114° |
| 2026-04-27 01:01 | 43.55959 | -116.21594 | 2873 ft | 34 kts | 116° |
| 2026-04-27 01:02 | 43.55863 | -116.21303 | 2871 ft | 33 kts | 116° |
| 2026-04-27 01:02 | 43.55792 | -116.21065 | 2873 ft | 17 kts | 90° |
| 2026-04-27 01:02 | 43.55796 | -116.21040 | 2874 ft | 0 kts | 67° |
| 2026-04-27 01:03 | 43.55854 | -116.20976 | 2877 ft | 13 kts | 2° |
| 2026-04-27 01:03 | 43.55915 | -116.21089 | 2876 ft | 23 kts | 297° |
| 2026-04-27 01:03 | 43.56100 | -116.21623 | 2871 ft | 124 kts | 295° |
| 2026-04-27 01:04 | 43.56655 | -116.23222 | 3350 ft | 218 kts | 296° |
| 2026-04-27 01:04 | 43.57324 | -116.25094 | 5399 ft | 222 kts | 296° |
| 2026-04-27 01:04 | 43.58061 | -116.27186 | 6346 ft | 259 kts | 295° |
| 2026-04-27 01:04 | 43.58860 | -116.29503 | 7478 ft | 271 kts | 295° |
| 2026-04-27 01:05 | 43.59687 | -116.31910 | 8629 ft | 285 kts | 295° |
| 2026-04-27 01:05 | 43.60659 | -116.34261 | 10026 ft | 274 kts | 301° |
| 2026-04-27 01:05 | 43.61557 | -116.36640 | 10975 ft | 287 kts | 294° |
| 2026-04-27 01:05 | 43.62410 | -116.39236 | 11785 ft | 310 kts | 295° |
| 2026-04-27 01:06 | 43.63375 | -116.41991 | 12603 ft | 334 kts | 295° |
| 2026-04-27 01:06 | 43.64526 | -116.44867 | 13367 ft | 351 kts | 308° |
| 2026-04-27 01:06 | 43.66401 | -116.47091 | 14530 ft | 361 kts | 330° |
| 2026-04-27 01:06 | 43.68747 | -116.48415 | 15588 ft | 367 kts | 340° |
| 2026-04-27 01:07 | 43.71177 | -116.49623 | 16155 ft | 373 kts | 340° |
| 2026-04-27 01:07 | 43.73629 | -116.50866 | 16886 ft | 380 kts | 339° |
| 2026-04-27 01:07 | 43.76128 | -116.52158 | 18173 ft | 384 kts | 339° |
| 2026-04-27 01:07 | 43.78603 | -116.53458 | 19453 ft | 388 kts | 339° |
| 2026-04-27 01:08 | 43.81149 | -116.54809 | 20597 ft | 395 kts | 339° |
| 2026-04-27 01:08 | 43.83739 | -116.56196 | 21662 ft | 403 kts | 338° |
| 2026-04-27 01:08 | 43.86377 | -116.57615 | 22725 ft | 409 kts | 338° |
| 2026-04-27 01:08 | 43.89059 | -116.59061 | 23757 ft | 416 kts | 338° |
| 2026-04-27 01:09 | 43.91776 | -116.60527 | 24725 ft | 422 kts | 338° |
| 2026-04-27 01:09 | 43.94539 | -116.62020 | 25648 ft | 429 kts | 338° |
| 2026-04-27 01:09 | 43.97336 | -116.63534 | 26518 ft | 435 kts | 338° |
| 2026-04-27 01:09 | 44.00173 | -116.65069 | 27360 ft | 441 kts | 338° |
| 2026-04-27 01:10 | 44.03056 | -116.66632 | 28187 ft | 447 kts | 338° |
| 2026-04-27 01:10 | 44.05969 | -116.68211 | 28983 ft | 452 kts | 338° |
| 2026-04-27 01:10 | 44.08921 | -116.69826 | 29714 ft | 457 kts | 337° |
| 2026-04-27 01:10 | 44.11811 | -116.71716 | 30405 ft | 463 kts | 332° |
| 2026-04-27 01:11 | 44.14574 | -116.74057 | 31023 ft | 468 kts | 326° |
| 2026-04-27 01:11 | 44.17261 | -116.76671 | 31603 ft | 473 kts | 322° |
| 2026-04-27 01:11 | 44.19830 | -116.79586 | 32178 ft | 477 kts | 320° |
| 2026-04-27 01:11 | 44.22344 | -116.82522 | 32753 ft | 480 kts | 320° |
| 2026-04-27 01:12 | 44.24905 | -116.85522 | 33297 ft | 482 kts | 320° |
| 2026-04-27 01:12 | 44.27485 | -116.88536 | 33886 ft | 483 kts | 320° |
| 2026-04-27 01:12 | 44.30067 | -116.91540 | 34517 ft | 482 kts | 320° |
| 2026-04-27 01:12 | 44.32636 | -116.94519 | 35209 ft | 479 kts | 320° |
| 2026-04-27 01:13 | 44.35193 | -116.97479 | 35820 ft | 478 kts | 320° |
| 2026-04-27 01:13 | 44.37668 | -117.00345 | 36316 ft | 479 kts | 320° |
| 2026-04-27 01:13 | 44.40238 | -117.03321 | 36759 ft | 480 kts | 320° |
| 2026-04-27 01:13 | 44.42815 | -117.06309 | 37199 ft | 482 kts | 320° |
| 2026-04-27 01:14 | 44.45360 | -117.09266 | 37699 ft | 481 kts | 320° |
| 2026-04-27 01:14 | 44.47937 | -117.12262 | 38033 ft | 481 kts | 320° |
| 2026-04-27 01:14 | 44.50512 | -117.15261 | 37996 ft | 479 kts | 320° |
| 2026-04-27 01:15 | 44.55711 | -117.21327 | 38013 ft | 495 kts | 320° |
| 2026-04-27 01:15 | 44.61071 | -117.27596 | 38009 ft | 506 kts | 320° |
| 2026-04-27 01:16 | 44.66476 | -117.33933 | 38003 ft | 504 kts | 320° |
| 2026-04-27 01:16 | 44.71856 | -117.40257 | 37998 ft | 503 kts | 320° |
| 2026-04-27 01:17 | 44.77214 | -117.46570 | 38005 ft | 501 kts | 320° |
| 2026-04-27 01:17 | 44.82548 | -117.52872 | 37999 ft | 499 kts | 320° |
| 2026-04-27 01:18 | 44.87820 | -117.59116 | 38000 ft | 497 kts | 320° |
| 2026-04-27 01:18 | 44.93107 | -117.65393 | 38000 ft | 496 kts | 320° |
| 2026-04-27 01:19 | 44.98390 | -117.71681 | 38001 ft | 497 kts | 320° |
| 2026-04-27 01:19 | 45.03671 | -117.77983 | 38006 ft | 498 kts | 320° |
| 2026-04-27 01:20 | 45.08977 | -117.84330 | 38004 ft | 499 kts | 319° |
| 2026-04-27 01:20 | 45.14280 | -117.90720 | 38000 ft | 500 kts | 317° |
| 2026-04-27 01:21 | 45.19020 | -117.97944 | 38000 ft | 501 kts | 308° |
| 2026-04-27 01:21 | 45.23124 | -118.05637 | 38001 ft | 501 kts | 307° |
| 2026-04-27 01:22 | 45.27305 | -118.13571 | 38002 ft | 503 kts | 307° |
| 2026-04-27 01:22 | 45.31524 | -118.21494 | 38004 ft | 502 kts | 307° |
| 2026-04-27 01:23 | 45.35750 | -118.29396 | 37999 ft | 501 kts | 307° |
| 2026-04-27 01:23 | 45.39964 | -118.37291 | 37998 ft | 500 kts | 307° |
| 2026-04-27 01:24 | 45.44173 | -118.45204 | 38003 ft | 500 kts | 307° |
| 2026-04-27 01:24 | 45.48333 | -118.53052 | 38002 ft | 500 kts | 307° |
| 2026-04-27 01:25 | 45.52519 | -118.60972 | 38005 ft | 499 kts | 307° |
| 2026-04-27 01:25 | 45.56692 | -118.68887 | 38002 ft | 498 kts | 307° |
| 2026-04-27 01:26 | 45.60849 | -118.76794 | 38000 ft | 496 kts | 307° |
| 2026-04-27 01:26 | 45.64955 | -118.84627 | 38000 ft | 494 kts | 307° |
| 2026-04-27 01:27 | 45.69069 | -118.92495 | 37999 ft | 493 kts | 307° |
| 2026-04-27 01:27 | 45.73316 | -119.00098 | 38007 ft | 493 kts | 310° |
| 2026-04-27 01:28 | 45.77750 | -119.07428 | 38002 ft | 493 kts | 311° |
| 2026-04-27 01:28 | 45.82236 | -119.14871 | 38002 ft | 494 kts | 310° |
| 2026-04-27 01:29 | 45.86727 | -119.22446 | 38011 ft | 502 kts | 310° |
| 2026-04-27 01:29 | 45.91252 | -119.30142 | 38000 ft | 504 kts | 310° |
| 2026-04-27 01:30 | 45.95763 | -119.37834 | 38000 ft | 503 kts | 310° |
| 2026-04-27 01:30 | 46.00233 | -119.45473 | 38000 ft | 503 kts | 310° |
| 2026-04-27 01:31 | 46.04738 | -119.53190 | 38001 ft | 502 kts | 310° |
| 2026-04-27 01:31 | 46.09239 | -119.60922 | 38001 ft | 502 kts | 310° |
| 2026-04-27 01:32 | 46.13721 | -119.68646 | 38000 ft | 502 kts | 309° |
| 2026-04-27 01:32 | 46.18175 | -119.76338 | 38000 ft | 502 kts | 309° |
| 2026-04-27 01:33 | 46.22648 | -119.84092 | 38002 ft | 502 kts | 309° |
| 2026-04-27 01:33 | 46.27081 | -119.91805 | 38000 ft | 502 kts | 309° |
| 2026-04-27 01:33 | 46.29320 | -119.95708 | 38840 ft | 502 kts | 311° |
| 2026-04-27 01:34 | 46.31541 | -119.99586 | 38612 ft | 497 kts | 311° |
| 2026-04-27 01:34 | 46.33630 | -120.03239 | 38384 ft | 491 kts | 311° |
| 2026-04-27 01:34 | 46.35797 | -120.07032 | 38116 ft | 486 kts | 311° |
| 2026-04-27 01:34 | 46.37949 | -120.10805 | 37975 ft | 481 kts | 311° |
| 2026-04-27 01:35 | 46.40071 | -120.14529 | 37900 ft | 477 kts | 311° |
| 2026-04-27 01:35 | 46.44313 | -120.21985 | 37442 ft | 479 kts | 312° |
| 2026-04-27 01:35 | 46.46427 | -120.25711 | 36753 ft | 474 kts | 312° |
| 2026-04-27 01:36 | 46.47784 | -120.28111 | 36395 ft | 454 kts | 312° |
| 2026-04-27 01:36 | 46.50317 | -120.32604 | 35783 ft | 415 kts | 314° |
| 2026-04-27 01:36 | 46.52105 | -120.35767 | 35376 ft | 399 kts | 314° |
| 2026-04-27 01:36 | 46.53861 | -120.38864 | 34948 ft | 396 kts | 315° |
| 2026-04-27 01:37 | 46.55019 | -120.40910 | 34663 ft | 394 kts | 315° |
| 2026-04-27 01:37 | 46.56751 | -120.43978 | 34245 ft | 391 kts | 315° |
| 2026-04-27 01:37 | 46.58408 | -120.47121 | 33801 ft | 391 kts | 312° |
| 2026-04-27 01:37 | 46.59968 | -120.50357 | 33261 ft | 389 kts | 312° |
| 2026-04-27 01:38 | 46.61486 | -120.53597 | 32831 ft | 385 kts | 311° |
| 2026-04-27 01:38 | 46.62985 | -120.56813 | 32389 ft | 381 kts | 311° |
| 2026-04-27 01:38 | 46.64468 | -120.59981 | 31985 ft | 376 kts | 313° |
| 2026-04-27 01:38 | 46.65942 | -120.63106 | 31563 ft | 372 kts | 313° |
| 2026-04-27 01:39 | 46.67385 | -120.66151 | 31158 ft | 369 kts | 313° |
| 2026-04-27 01:39 | 46.68838 | -120.69211 | 30749 ft | 366 kts | 313° |
| 2026-04-27 01:39 | 46.70285 | -120.72254 | 30339 ft | 363 kts | 313° |
| 2026-04-27 01:39 | 46.71718 | -120.75270 | 29946 ft | 360 kts | 313° |
| 2026-04-27 01:40 | 46.73140 | -120.78266 | 29485 ft | 358 kts | 313° |
| 2026-04-27 01:40 | 46.74550 | -120.81239 | 29052 ft | 355 kts | 313° |
| 2026-04-27 01:40 | 46.75944 | -120.84185 | 28640 ft | 352 kts | 312° |
| 2026-04-27 01:40 | 46.77334 | -120.87125 | 28240 ft | 350 kts | 312° |
| 2026-04-27 01:41 | 46.78712 | -120.90045 | 27820 ft | 348 kts | 312° |
| 2026-04-27 01:41 | 46.80085 | -120.92954 | 27413 ft | 346 kts | 312° |
| 2026-04-27 01:41 | 46.81430 | -120.95806 | 27031 ft | 344 kts | 311° |
| 2026-04-27 01:41 | 46.82780 | -120.98672 | 26640 ft | 342 kts | 311° |
| 2026-04-27 01:42 | 46.84078 | -121.01433 | 26224 ft | 340 kts | 311° |
| 2026-04-27 01:42 | 46.85409 | -121.04250 | 25877 ft | 336 kts | 311° |
| 2026-04-27 01:42 | 46.86728 | -121.07070 | 25485 ft | 336 kts | 310° |
| 2026-04-27 01:42 | 46.88042 | -121.09887 | 25091 ft | 335 kts | 310° |
| 2026-04-27 01:43 | 46.89353 | -121.12692 | 24711 ft | 333 kts | 310° |
| 2026-04-27 01:43 | 46.90663 | -121.15489 | 24330 ft | 332 kts | 310° |
| 2026-04-27 01:43 | 46.91967 | -121.18278 | 23940 ft | 332 kts | 309° |
| 2026-04-27 01:43 | 46.93270 | -121.21067 | 23568 ft | 331 kts | 309° |
| 2026-04-27 01:44 | 46.94548 | -121.23807 | 23136 ft | 330 kts | 309° |
| 2026-04-27 01:44 | 46.95841 | -121.26582 | 22718 ft | 329 kts | 309° |
| 2026-04-27 01:44 | 46.97130 | -121.29347 | 22293 ft | 327 kts | 309° |
| 2026-04-27 01:44 | 46.98404 | -121.32086 | 21945 ft | 325 kts | 309° |
| 2026-04-27 01:45 | 46.99674 | -121.34818 | 21557 ft | 324 kts | 308° |
| 2026-04-27 01:45 | 47.00934 | -121.37538 | 21153 ft | 323 kts | 308° |
| 2026-04-27 01:45 | 47.02192 | -121.40253 | 20781 ft | 321 kts | 308° |
| 2026-04-27 01:45 | 47.03445 | -121.42959 | 20405 ft | 320 kts | 308° |
| 2026-04-27 01:46 | 47.04697 | -121.45665 | 20024 ft | 320 kts | 308° |
| 2026-04-27 01:46 | 47.05948 | -121.48367 | 19644 ft | 319 kts | 308° |
| 2026-04-27 01:46 | 47.07193 | -121.51064 | 19251 ft | 319 kts | 307° |
| 2026-04-27 01:46 | 47.08434 | -121.53761 | 18879 ft | 319 kts | 307° |
| 2026-04-27 01:47 | 47.09675 | -121.56457 | 18479 ft | 319 kts | 307° |
| 2026-04-27 01:47 | 47.10899 | -121.59125 | 18095 ft | 318 kts | 307° |
| 2026-04-27 01:47 | 47.12135 | -121.61813 | 17650 ft | 317 kts | 307° |
| 2026-04-27 01:47 | 47.13368 | -121.64487 | 17251 ft | 316 kts | 307° |
| 2026-04-27 01:48 | 47.14596 | -121.67157 | 16865 ft | 315 kts | 307° |
| 2026-04-27 01:48 | 47.15816 | -121.69816 | 16462 ft | 313 kts | 307° |
| 2026-04-27 01:48 | 47.17022 | -121.72452 | 16181 ft | 308 kts | 307° |
| 2026-04-27 01:48 | 47.18216 | -121.75059 | 15821 ft | 306 kts | 306° |
| 2026-04-27 01:49 | 47.19400 | -121.77648 | 15459 ft | 304 kts | 306° |
| 2026-04-27 01:49 | 47.20573 | -121.80220 | 15101 ft | 302 kts | 306° |
| 2026-04-27 01:49 | 47.21734 | -121.82769 | 14845 ft | 297 kts | 305° |
| 2026-04-27 01:49 | 47.22879 | -121.85278 | 14620 ft | 292 kts | 305° |
| 2026-04-27 01:50 | 47.23987 | -121.87707 | 14401 ft | 288 kts | 305° |
| 2026-04-27 01:50 | 47.25099 | -121.90149 | 14183 ft | 287 kts | 305° |
| 2026-04-27 01:50 | 47.26211 | -121.92591 | 13977 ft | 288 kts | 305° |
| 2026-04-27 01:50 | 47.27328 | -121.95050 | 13749 ft | 288 kts | 304° |
| 2026-04-27 01:51 | 47.28443 | -121.97505 | 13528 ft | 289 kts | 304° |
| 2026-04-27 01:51 | 47.29497 | -121.99827 | 13287 ft | 288 kts | 304° |
| 2026-04-27 01:51 | 47.30333 | -122.01673 | 13127 ft | 288 kts | 304° |
| 2026-04-27 01:51 | 47.31443 | -122.04122 | 12900 ft | 287 kts | 304° |
| 2026-04-27 01:52 | 47.32550 | -122.06567 | 12679 ft | 286 kts | 304° |
| 2026-04-27 01:52 | 47.33650 | -122.08998 | 12462 ft | 285 kts | 304° |
| 2026-04-27 01:52 | 47.34747 | -122.11427 | 12245 ft | 284 kts | 304° |
| 2026-04-27 01:52 | 47.35839 | -122.13836 | 12105 ft | 278 kts | 307° |
| 2026-04-27 01:53 | 47.37241 | -122.15744 | 12019 ft | 277 kts | 332° |
| 2026-04-27 01:53 | 47.39093 | -122.16534 | 12013 ft | 281 kts | 352° |
| 2026-04-27 01:53 | 47.41056 | -122.16700 | 11908 ft | 282 kts | 356° |
| 2026-04-27 01:53 | 47.43022 | -122.16746 | 11597 ft | 282 kts | 358° |
| 2026-04-27 01:54 | 47.44948 | -122.16766 | 11338 ft | 277 kts | 358° |
| 2026-04-27 01:54 | 47.46879 | -122.16778 | 11149 ft | 270 kts | 358° |
| 2026-04-27 01:54 | 47.48715 | -122.16781 | 10940 ft | 265 kts | 358° |
| 2026-04-27 01:54 | 47.50543 | -122.16834 | 10583 ft | 259 kts | 351° |
| 2026-04-27 01:55 | 47.52256 | -122.17665 | 10090 ft | 262 kts | 333° |
| 2026-04-27 01:55 | 47.53879 | -122.18919 | 9679 ft | 264 kts | 330° |
| 2026-04-27 01:55 | 47.55499 | -122.20246 | 9228 ft | 267 kts | 330° |
| 2026-04-27 01:55 | 47.57130 | -122.21597 | 8769 ft | 270 kts | 330° |
| 2026-04-27 01:56 | 47.60402 | -122.24341 | 7909 ft | 273 kts | 330° |
| 2026-04-27 01:56 | 47.62056 | -122.25741 | 7480 ft | 275 kts | 330° |
| 2026-04-27 01:56 | 47.63719 | -122.27156 | 7052 ft | 275 kts | 330° |
| 2026-04-27 01:57 | 47.65382 | -122.28577 | 6627 ft | 276 kts | 330° |
| 2026-04-27 01:57 | 47.67047 | -122.30004 | 6207 ft | 276 kts | 330° |
| 2026-04-27 01:57 | 47.68709 | -122.31434 | 5770 ft | 276 kts | 329° |
| 2026-04-27 01:57 | 47.70384 | -122.32854 | 5340 ft | 276 kts | 329° |
| 2026-04-27 01:58 | 47.72039 | -122.34240 | 4913 ft | 277 kts | 330° |
| 2026-04-27 01:58 | 47.73721 | -122.35644 | 4487 ft | 277 kts | 329° |
| 2026-04-27 01:58 | 47.75346 | -122.36984 | 4012 ft | 256 kts | 330° |
| 2026-04-27 01:58 | 47.76855 | -122.38222 | 3566 ft | 239 kts | 330° |
| 2026-04-27 01:59 | 47.78308 | -122.39242 | 3117 ft | 225 kts | 343° |
| 2026-04-27 01:59 | 47.79726 | -122.40042 | 2645 ft | 213 kts | 323° |
| 2026-04-27 01:59 | 47.80569 | -122.41718 | 2283 ft | 197 kts | 285° |
| 2026-04-27 01:59 | 47.80499 | -122.43697 | 2215 ft | 198 kts | 248° |
| 2026-04-27 02:00 | 47.79591 | -122.45280 | 2201 ft | 213 kts | 212° |
| 2026-04-27 02:00 | 47.78182 | -122.45855 | 2218 ft | 211 kts | 183° |
| 2026-04-27 02:00 | 47.76710 | -122.45786 | 2216 ft | 211 kts | 178° |
| 2026-04-27 02:00 | 47.75245 | -122.45640 | 2205 ft | 210 kts | 177° |
| 2026-04-27 02:01 | 47.73790 | -122.45494 | 2208 ft | 209 kts | 177° |
| 2026-04-27 02:01 | 47.72346 | -122.45349 | 2197 ft | 207 kts | 177° |
| 2026-04-27 02:01 | 47.70919 | -122.45177 | 2183 ft | 202 kts | 170° |
| 2026-04-27 02:01 | 47.69626 | -122.44363 | 2219 ft | 206 kts | 149° |
| 2026-04-27 02:02 | 47.68375 | -122.43276 | 2218 ft | 208 kts | 152° |
| 2026-04-27 02:02 | 47.67146 | -122.42250 | 2194 ft | 196 kts | 151° |
| 2026-04-27 02:02 | 47.65980 | -122.41263 | 2201 ft | 192 kts | 151° |
| 2026-04-27 02:02 | 47.64844 | -122.40294 | 2208 ft | 189 kts | 150° |
| 2026-04-27 02:03 | 47.63703 | -122.39326 | 2209 ft | 189 kts | 151° |
| 2026-04-27 02:03 | 47.62528 | -122.38327 | 1904 ft | 197 kts | 151° |
| 2026-04-27 02:03 | 47.61347 | -122.37322 | 1683 ft | 194 kts | 151° |
| 2026-04-27 02:03 | 47.60211 | -122.36356 | 1397 ft | 178 kts | 151° |
| 2026-04-27 02:04 | 47.59196 | -122.35493 | 1207 ft | 160 kts | 151° |
| 2026-04-27 02:04 | 47.58257 | -122.34696 | 984 ft | 151 kts | 151° |
| 2026-04-27 02:04 | 47.57401 | -122.33972 | 790 ft | 133 kts | 152° |
| 2026-04-27 02:04 | 47.56594 | -122.33283 | 622 ft | 134 kts | 150° |
| 2026-04-27 02:05 | 47.55792 | -122.32603 | 428 ft | 131 kts | 151° |
| 2026-04-27 02:05 | 47.55012 | -122.31936 | 267 ft | 128 kts | 152° |
| 2026-04-27 02:05 | 47.54235 | -122.31280 | 105 ft | 128 kts | 152° |
| 2026-04-27 02:05 | 47.53483 | -122.30646 | 26 ft | 118 kts | 152° |
| 2026-04-27 02:06 | 47.52870 | -122.30134 | 23 ft | 80 kts | 150° |
| 2026-04-27 02:06 | 47.52516 | -122.29833 | 30 ft | 45 kts | 150° |
| 2026-04-27 02:06 | 47.52299 | -122.29601 | 28 ft | 21 kts | 91° |
| 2026-04-27 02:06 | 47.52349 | -122.29551 | 28 ft | 6 kts | 347° |
| 2026-04-27 02:07 | 47.52396 | -122.29580 | 29 ft | 11 kts | 334° |
| 2026-04-27 02:07 | 47.52512 | -122.29677 | 27 ft | 25 kts | 330° |
| 2026-04-27 02:07 | 47.52642 | -122.29786 | 25 ft | 25 kts | 330° |
| 2026-04-27 02:07 | 47.52715 | -122.29848 | 23 ft | 0 kts | 330° |
| 2026-04-27 02:08 | 47.52717 | -122.29851 | 24 ft | 1 kts | 322° |
| 2026-04-27 02:08 | 47.52720 | -122.29860 | 24 ft | 0 kts | 292° |
| 2026-04-27 02:09 | 47.52721 | -122.29871 | 24 ft | 6 kts | 284° |
| 2026-04-27 02:09 | 47.52697 | -122.29971 | 24 ft | 12 kts | 242° |
| 2026-04-27 02:09 | 47.52665 | -122.30065 | 24 ft | 4 kts | 253° |
| 2026-04-27 02:09 | 47.52671 | -122.30130 | 25 ft | 16 kts | 290° |
| 2026-04-27 02:10 | 47.52713 | -122.30264 | 29 ft | 12 kts | 279° |
| 2026-04-27 02:10 | 47.52704 | -122.30301 | 29 ft | 0 kts | 227° |
| 2026-04-27 02:10 | 47.52663 | -122.30306 | 28 ft | 0 kts | 147° |
| 2026-04-27 02:10 | 47.52662 | -122.30305 | 28 ft | 1 kts | 145° |
| 2026-04-27 02:11 | 47.52665 | -122.30308 | 28 ft | 4 kts | 142° |
| 2026-04-27 02:11 | 47.52703 | -122.30332 | 30 ft | 7 kts | 205° |
| 2026-04-27 02:11 | 47.52643 | -122.30333 | 26 ft | 17 kts | 161° |
| 2026-04-27 02:11 | 47.52457 | -122.30313 | 27 ft | 2 kts | 181° |
| 2026-04-27 02:12 | 47.52475 | -122.30313 | 27 ft | 3 kts | 181° |
| 2026-04-27 02:12 | 47.52488 | -122.30312 | 27 ft | 0 kts | 181° |